KTHV/THV METAR and TAF weather

Enter ICAO airport designator
Station Type Date Time Source
KTHV METAR 2019/04/18 14:53 UTC NOAA

KTHV 181453Z AUTO 00000KT 4SM BR OVC005 12/12 A3001 RMK AO2 SLP163 T01220117 56006


Station Type Date Time Source
KTHV Decoded METAR 2019/04/18 14:53 UTC NOAA

YORK AIRPORT, PA, United States (KTHV) 39-55N 076-53W 144M
Apr 18, 2019 - 10:53 AM EDT / 2019.04.18 1453 UTC
Wind: Calm:0
Visibility: 4 mile(s):0
Sky conditions: overcast
Weather: mist
Temperature: 54.0 F (12.2 C)
Dew Point: 53.1 F (11.7 C)
Relative Humidity: 96%
Pressure (altimeter): 30.01 in. Hg (1016 hPa)
Pressure tendency: 0.02 inches (0.6 hPa) lower than three hours ago
ob: KTHV 181453Z AUTO 00000KT 4SM BR OVC005 12/12 A3001 RMK AO2 SLP163 T01220117 56006
cycle: 15

Station Type Date Time Source
KTHV TAF UTC NOAA

Error!

Example: see airport list